Terminal Aerodrome Forecast
Issued by NWS

Current Version | Previous Version | Text Only | Print | Product List | Glossary On
Versions: 1 2 3 4 5 6 7 8 9 10 11 12 13 14 15 16
000
FTAK31 PANC 222331
TAFACD
TAF
PACD 222331Z 2300/2324 35018G30KT P6SM BKN200
      TEMPO 2300/2304 35010KT
     FM230400 35010KT P6SM SKC=

USA.gov is the U.S. government's official web portal to all federal, state and local government web resources and services.